Nearby METARS Reports

 

LFML - Marseille/Marign, France
Distance from station: O 47km
Mise à jour: 24/07/2017 16:00
clair
clair
 Wind from NNO
Vent: NNO 44 km/h
Température: 28°C
Point de rosée: 12°C
Humidité: 37%
Baromètre: 1010 hPa
Résumé: clair
Visibility: greater than 10 km
2017/07/24 14:00 LFML 241400Z AUTO 33024KT CAVOK 28/12 Q1010 TEMPO 33025G37KT
LFMC - Le Luc/Le Cannet, France
Distance from station: ESE 48km
Mise à jour: 24/07/2017 15:00
NOT Current
peu nuageux
peu nuageux
 Wind from ONO
Vent: ONO 44 km/h, Rafale: 65 km/h
Température: 31°C
Point de rosée: 11°C
Humidité: 29%
Baromètre: 1006 hPa
Clouds: peu nuageux
Visibility: 10 km
Cloud details: peu nuageux 1402 m
2017/07/24 13:00 LFMC 241300Z 29024G35KT 260V320 9999 FEW046 31/11 Q1006
LFTH - Hyeres/Le Palyve, France
Distance from station: SSE 53km
Mise à jour: 24/07/2017 16:00
clair
clair
 Wind from O
Vent: O 41 km/h, Rafale: 63 km/h
Température: 28°C
Heat Index: 28°C
Point de rosée: 16°C
Humidité: 48%
Baromètre: 1006 hPa
Résumé: clair
Visibility: greater than 10 km
2017/07/24 14:00 LFTH 241400Z AUTO 26022G34KT CAVOK 28/16 Q1006 NOSIG